sensor_id;sensor_type;location;lat;lon;timestamp;P1;durP1;ratioP1;P2;durP2;ratioP2
4186;SDS011;2107;52.306;10.484;2023-04-12T00:02:18;1.30;;;1.30;;
4186;SDS011;2107;52.306;10.484;2023-04-12T00:04:45;1.50;;;1.50;;
4186;SDS011;2107;52.306;10.484;2023-04-12T00:07:19;0.90;;;0.90;;
4186;SDS011;2107;52.306;10.484;2023-04-12T00:09:46;1.60;;;1.60;;
4186;SDS011;2107;52.306;10.484;2023-04-12T00:12:13;1.10;;;1.10;;
4186;SDS011;2107;52.306;10.484;2023-04-12T00:14:43;1.00;;;1.00;;
4186;SDS011;2107;52.306;10.484;2023-04-12T00:17:10;1.10;;;1.10;;
4186;SDS011;2107;52.306;10.484;2023-04-12T00:19:37;1.07;;;1.07;;
4186;SDS011;2107;52.306;10.484;2023-04-12T00:22:05;1.20;;;1.20;;
4186;SDS011;2107;52.306;10.484;2023-04-12T00:24:32;1.50;;;1.50;;
4186;SDS011;2107;52.306;10.484;2023-04-12T00:26:59;1.50;;;1.50;;
4186;SDS011;2107;52.306;10.484;2023-04-12T00:29:27;1.40;;;1.40;;
4186;SDS011;2107;52.306;10.484;2023-04-12T00:31:55;1.40;;;1.40;;
4186;SDS011;2107;52.306;10.484;2023-04-12T00:34:22;1.80;;;1.80;;
4186;SDS011;2107;52.306;10.484;2023-04-12T00:36:48;1.80;;;1.80;;
4186;SDS011;2107;52.306;10.484;2023-04-12T00:39:15;1.70;;;1.70;;
4186;SDS011;2107;52.306;10.484;2023-04-12T00:41:42;1.70;;;1.70;;
4186;SDS011;2107;52.306;10.484;2023-04-12T00:44:09;1.50;;;1.50;;
4186;SDS011;2107;52.306;10.484;2023-04-12T00:46:36;1.40;;;1.40;;
4186;SDS011;2107;52.306;10.484;2023-04-12T00:49:05;1.90;;;1.90;;
4186;SDS011;2107;52.306;10.484;2023-04-12T00:51:32;1.83;;;1.83;;
4186;SDS011;2107;52.306;10.484;2023-04-12T00:53:59;2.00;;;2.00;;
4186;SDS011;2107;52.306;10.484;2023-04-12T00:56:27;1.10;;;1.10;;
4186;SDS011;2107;52.306;10.484;2023-04-12T00:58:55;1.20;;;1.20;;
4186;SDS011;2107;52.306;10.484;2023-04-12T01:01:23;1.20;;;1.20;;
4186;SDS011;2107;52.306;10.484;2023-04-12T01:03:49;1.20;;;1.20;;
4186;SDS011;2107;52.306;10.484;2023-04-12T01:06:22;1.40;;;1.40;;
4186;SDS011;2107;52.306;10.484;2023-04-12T01:09:02;1.40;;;1.40;;
4186;SDS011;2107;52.306;10.484;2023-04-12T01:11:39;1.50;;;1.50;;
4186;SDS011;2107;52.306;10.484;2023-04-12T01:14:10;1.40;;;1.40;;
4186;SDS011;2107;52.306;10.484;2023-04-12T01:16:43;1.60;;;1.60;;
4186;SDS011;2107;52.306;10.484;2023-04-12T01:19:18;1.40;;;1.40;;
4186;SDS011;2107;52.306;10.484;2023-04-12T01:22:05;1.80;;;1.80;;
4186;SDS011;2107;52.306;10.484;2023-04-12T01:24:42;1.90;;;1.90;;
4186;SDS011;2107;52.306;10.484;2023-04-12T01:27:22;1.60;;;1.60;;
4186;SDS011;2107;52.306;10.484;2023-04-12T01:29:58;2.00;;;2.00;;
4186;SDS011;2107;52.306;10.484;2023-04-12T01:32:27;1.60;;;1.60;;
4186;SDS011;2107;52.306;10.484;2023-04-12T01:34:55;1.70;;;1.70;;
4186;SDS011;2107;52.306;10.484;2023-04-12T01:37:23;1.80;;;1.80;;
4186;SDS011;2107;52.306;10.484;2023-04-12T01:39:51;1.30;;;1.30;;
4186;SDS011;2107;52.306;10.484;2023-04-12T01:42:18;1.50;;;1.50;;
4186;SDS011;2107;52.306;10.484;2023-04-12T01:44:46;1.40;;;1.40;;
4186;SDS011;2107;52.306;10.484;2023-04-12T01:47:14;1.30;;;1.30;;
4186;SDS011;2107;52.306;10.484;2023-04-12T01:49:42;1.20;;;1.20;;
4186;SDS011;2107;52.306;10.484;2023-04-12T01:52:20;1.40;;;1.40;;
4186;SDS011;2107;52.306;10.484;2023-04-12T01:54:50;1.20;;;1.20;;
4186;SDS011;2107;52.306;10.484;2023-04-12T01:57:19;1.30;;;1.30;;
4186;SDS011;2107;52.306;10.484;2023-04-12T01:59:48;1.30;;;1.30;;
4186;SDS011;2107;52.306;10.484;2023-04-12T02:02:16;1.30;;;1.30;;
4186;SDS011;2107;52.306;10.484;2023-04-12T02:04:44;1.30;;;1.30;;
4186;SDS011;2107;52.306;10.484;2023-04-12T02:07:12;1.23;;;1.23;;
4186;SDS011;2107;52.306;10.484;2023-04-12T02:09:40;1.40;;;1.40;;
4186;SDS011;2107;52.306;10.484;2023-04-12T02:12:07;1.40;;;1.40;;
4186;SDS011;2107;52.306;10.484;2023-04-12T02:14:34;1.40;;;1.40;;
4186;SDS011;2107;52.306;10.484;2023-04-12T02:17:03;1.50;;;1.50;;
4186;SDS011;2107;52.306;10.484;2023-04-12T02:19:30;1.40;;;1.40;;
4186;SDS011;2107;52.306;10.484;2023-04-12T02:21:57;1.70;;;1.70;;
4186;SDS011;2107;52.306;10.484;2023-04-12T02:24:24;1.60;;;1.60;;
4186;SDS011;2107;52.306;10.484;2023-04-12T02:26:51;1.80;;;1.80;;
4186;SDS011;2107;52.306;10.484;2023-04-12T02:29:19;1.70;;;1.70;;
4186;SDS011;2107;52.306;10.484;2023-04-12T02:31:45;1.70;;;1.70;;
4186;SDS011;2107;52.306;10.484;2023-04-12T02:34:14;1.50;;;1.50;;
4186;SDS011;2107;52.306;10.484;2023-04-12T02:36:44;1.20;;;1.20;;
4186;SDS011;2107;52.306;10.484;2023-04-12T02:39:12;1.30;;;1.30;;
4186;SDS011;2107;52.306;10.484;2023-04-12T02:41:42;1.30;;;1.30;;
4186;SDS011;2107;52.306;10.484;2023-04-12T02:44:09;1.30;;;1.30;;
4186;SDS011;2107;52.306;10.484;2023-04-12T02:46:36;1.40;;;1.40;;
4186;SDS011;2107;52.306;10.484;2023-04-12T02:49:03;1.50;;;1.50;;
4186;SDS011;2107;52.306;10.484;2023-04-12T02:51:31;1.03;;;1.03;;
4186;SDS011;2107;52.306;10.484;2023-04-12T02:53:58;1.70;;;1.70;;
4186;SDS011;2107;52.306;10.484;2023-04-12T02:56:25;1.40;;;1.40;;
4186;SDS011;2107;52.306;10.484;2023-04-12T02:58:53;1.50;;;1.50;;
4186;SDS011;2107;52.306;10.484;2023-04-12T03:01:20;1.53;;;1.53;;
4186;SDS011;2107;52.306;10.484;2023-04-12T03:03:47;1.10;;;1.10;;
4186;SDS011;2107;52.306;10.484;2023-04-12T03:06:14;1.40;;;1.40;;
4186;SDS011;2107;52.306;10.484;2023-04-12T03:08:42;1.37;;;1.37;;
4186;SDS011;2107;52.306;10.484;2023-04-12T03:11:09;1.10;;;1.10;;
4186;SDS011;2107;52.306;10.484;2023-04-12T03:13:36;1.37;;;1.37;;
4186;SDS011;2107;52.306;10.484;2023-04-12T03:16:18;1.50;;;1.50;;
4186;SDS011;2107;52.306;10.484;2023-04-12T03:18:47;1.33;;;1.33;;
4186;SDS011;2107;52.306;10.484;2023-04-12T03:21:14;1.33;;;1.33;;
4186;SDS011;2107;52.306;10.484;2023-04-12T03:23:42;1.30;;;1.30;;
4186;SDS011;2107;52.306;10.484;2023-04-12T03:26:09;1.30;;;1.30;;
4186;SDS011;2107;52.306;10.484;2023-04-12T03:28:36;1.20;;;1.20;;
4186;SDS011;2107;52.306;10.484;2023-04-12T03:31:03;1.37;;;1.37;;
4186;SDS011;2107;52.306;10.484;2023-04-12T03:33:30;1.43;;;1.43;;
4186;SDS011;2107;52.306;10.484;2023-04-12T03:35:57;1.00;;;1.00;;
4186;SDS011;2107;52.306;10.484;2023-04-12T03:38:24;1.17;;;1.17;;
4186;SDS011;2107;52.306;10.484;2023-04-12T03:40:52;0.90;;;0.90;;
4186;SDS011;2107;52.306;10.484;2023-04-12T03:43:19;1.00;;;1.00;;
4186;SDS011;2107;52.306;10.484;2023-04-12T03:45:46;1.00;;;1.00;;
4186;SDS011;2107;52.306;10.484;2023-04-12T03:48:13;1.00;;;1.00;;
4186;SDS011;2107;52.306;10.484;2023-04-12T03:50:40;1.00;;;1.00;;
4186;SDS011;2107;52.306;10.484;2023-04-12T03:53:09;1.00;;;1.00;;
4186;SDS011;2107;52.306;10.484;2023-04-12T03:55:36;0.90;;;0.90;;
4186;SDS011;2107;52.306;10.484;2023-04-12T03:58:04;0.90;;;0.90;;
4186;SDS011;2107;52.306;10.484;2023-04-12T04:00:31;1.00;;;1.00;;
4186;SDS011;2107;52.306;10.484;2023-04-12T04:02:58;0.90;;;0.90;;
4186;SDS011;2107;52.306;10.484;2023-04-12T04:05:27;0.80;;;0.80;;
4186;SDS011;2107;52.306;10.484;2023-04-12T04:07:54;0.83;;;0.83;;
4186;SDS011;2107;52.306;10.484;2023-04-12T04:10:24;0.90;;;0.90;;
4186;SDS011;2107;52.306;10.484;2023-04-12T04:12:51;1.00;;;1.00;;
4186;SDS011;2107;52.306;10.484;2023-04-12T04:15:20;0.90;;;0.90;;
4186;SDS011;2107;52.306;10.484;2023-04-12T04:17:46;1.00;;;1.00;;
4186;SDS011;2107;52.306;10.484;2023-04-12T04:20:13;1.10;;;1.10;;
4186;SDS011;2107;52.306;10.484;2023-04-12T04:22:42;0.97;;;0.97;;
4186;SDS011;2107;52.306;10.484;2023-04-12T04:25:12;1.10;;;1.10;;
4186;SDS011;2107;52.306;10.484;2023-04-12T04:27:39;1.00;;;1.00;;
4186;SDS011;2107;52.306;10.484;2023-04-12T04:30:09;1.10;;;1.10;;
4186;SDS011;2107;52.306;10.484;2023-04-12T04:32:38;1.10;;;1.10;;
4186;SDS011;2107;52.306;10.484;2023-04-12T04:35:05;1.10;;;1.10;;
4186;SDS011;2107;52.306;10.484;2023-04-12T04:37:33;1.10;;;1.10;;
4186;SDS011;2107;52.306;10.484;2023-04-12T04:40:01;1.00;;;1.00;;
4186;SDS011;2107;52.306;10.484;2023-04-12T04:42:33;1.03;;;1.03;;
4186;SDS011;2107;52.306;10.484;2023-04-12T04:45:01;1.00;;;1.00;;
4186;SDS011;2107;52.306;10.484;2023-04-12T04:47:38;1.10;;;1.10;;
4186;SDS011;2107;52.306;10.484;2023-04-12T04:50:05;1.30;;;1.30;;
4186;SDS011;2107;52.306;10.484;2023-04-12T04:52:33;1.10;;;1.10;;
4186;SDS011;2107;52.306;10.484;2023-04-12T04:55:01;1.00;;;1.00;;
4186;SDS011;2107;52.306;10.484;2023-04-12T04:57:29;1.00;;;1.00;;
4186;SDS011;2107;52.306;10.484;2023-04-12T04:59:55;1.13;;;1.13;;
4186;SDS011;2107;52.306;10.484;2023-04-12T05:02:22;1.20;;;1.20;;
4186;SDS011;2107;52.306;10.484;2023-04-12T05:04:51;1.23;;;1.23;;
4186;SDS011;2107;52.306;10.484;2023-04-12T05:07:20;1.00;;;1.00;;
4186;SDS011;2107;52.306;10.484;2023-04-12T05:09:47;1.20;;;1.20;;
4186;SDS011;2107;52.306;10.484;2023-04-12T05:12:14;1.10;;;1.10;;
4186;SDS011;2107;52.306;10.484;2023-04-12T05:14:41;1.20;;;1.20;;
4186;SDS011;2107;52.306;10.484;2023-04-12T05:17:08;1.10;;;1.10;;
4186;SDS011;2107;52.306;10.484;2023-04-12T05:19:35;1.00;;;1.00;;
4186;SDS011;2107;52.306;10.484;2023-04-12T05:22:03;0.90;;;0.90;;
4186;SDS011;2107;52.306;10.484;2023-04-12T05:24:30;1.03;;;1.03;;
4186;SDS011;2107;52.306;10.484;2023-04-12T05:26:57;1.30;;;1.30;;
4186;SDS011;2107;52.306;10.484;2023-04-12T05:29:25;0.90;;;0.90;;
4186;SDS011;2107;52.306;10.484;2023-04-12T05:31:51;0.80;;;0.80;;
4186;SDS011;2107;52.306;10.484;2023-04-12T05:34:18;0.90;;;0.90;;
4186;SDS011;2107;52.306;10.484;2023-04-12T05:36:45;1.00;;;1.00;;
4186;SDS011;2107;52.306;10.484;2023-04-12T05:39:13;1.20;;;1.20;;
4186;SDS011;2107;52.306;10.484;2023-04-12T05:41:40;0.90;;;0.90;;
4186;SDS011;2107;52.306;10.484;2023-04-12T05:44:07;1.00;;;1.00;;
4186;SDS011;2107;52.306;10.484;2023-04-12T05:46:34;1.20;;;1.20;;
4186;SDS011;2107;52.306;10.484;2023-04-12T05:49:01;1.00;;;1.00;;
4186;SDS011;2107;52.306;10.484;2023-04-12T05:51:28;1.30;;;1.30;;
4186;SDS011;2107;52.306;10.484;2023-04-12T05:53:55;0.90;;;0.90;;
4186;SDS011;2107;52.306;10.484;2023-04-12T05:56:23;1.30;;;1.30;;
4186;SDS011;2107;52.306;10.484;2023-04-12T05:58:50;1.20;;;1.20;;
4186;SDS011;2107;52.306;10.484;2023-04-12T06:01:17;1.00;;;1.00;;
4186;SDS011;2107;52.306;10.484;2023-04-12T06:03:45;1.17;;;1.17;;
4186;SDS011;2107;52.306;10.484;2023-04-12T06:06:13;0.90;;;0.90;;
4186;SDS011;2107;52.306;10.484;2023-04-12T06:08:40;1.00;;;1.00;;
4186;SDS011;2107;52.306;10.484;2023-04-12T06:11:06;0.93;;;0.93;;
4186;SDS011;2107;52.306;10.484;2023-04-12T06:13:37;1.23;;;1.23;;
4186;SDS011;2107;52.306;10.484;2023-04-12T06:16:04;1.30;;;1.30;;
4186;SDS011;2107;52.306;10.484;2023-04-12T06:18:31;0.93;;;0.93;;
4186;SDS011;2107;52.306;10.484;2023-04-12T06:20:58;1.20;;;1.20;;
4186;SDS011;2107;52.306;10.484;2023-04-12T06:23:25;1.00;;;1.00;;
4186;SDS011;2107;52.306;10.484;2023-04-12T06:25:52;1.30;;;1.30;;
4186;SDS011;2107;52.306;10.484;2023-04-12T06:28:19;1.40;;;1.40;;
4186;SDS011;2107;52.306;10.484;2023-04-12T06:30:47;1.17;;;1.17;;
4186;SDS011;2107;52.306;10.484;2023-04-12T06:33:14;1.10;;;1.10;;
4186;SDS011;2107;52.306;10.484;2023-04-12T06:35:41;1.10;;;1.10;;
4186;SDS011;2107;52.306;10.484;2023-04-12T06:38:08;1.10;;;1.10;;
4186;SDS011;2107;52.306;10.484;2023-04-12T06:40:34;1.20;;;1.20;;
4186;SDS011;2107;52.306;10.484;2023-04-12T06:43:01;1.20;;;1.20;;
4186;SDS011;2107;52.306;10.484;2023-04-12T06:45:28;1.10;;;1.10;;
4186;SDS011;2107;52.306;10.484;2023-04-12T06:47:57;0.77;;;0.77;;
4186;SDS011;2107;52.306;10.484;2023-04-12T06:50:24;0.80;;;0.80;;
4186;SDS011;2107;52.306;10.484;2023-04-12T06:52:51;0.80;;;0.80;;
4186;SDS011;2107;52.306;10.484;2023-04-12T06:55:18;0.90;;;0.90;;
4186;SDS011;2107;52.306;10.484;2023-04-12T06:57:44;1.10;;;1.10;;
4186;SDS011;2107;52.306;10.484;2023-04-12T07:00:12;1.00;;;1.00;;
4186;SDS011;2107;52.306;10.484;2023-04-12T07:02:39;1.03;;;1.03;;
4186;SDS011;2107;52.306;10.484;2023-04-12T07:05:08;1.20;;;1.20;;
4186;SDS011;2107;52.306;10.484;2023-04-12T07:07:35;0.70;;;0.70;;
4186;SDS011;2107;52.306;10.484;2023-04-12T07:10:01;1.00;;;1.00;;
4186;SDS011;2107;52.306;10.484;2023-04-12T07:12:29;0.93;;;0.93;;
4186;SDS011;2107;52.306;10.484;2023-04-12T07:14:56;1.20;;;1.20;;
4186;SDS011;2107;52.306;10.484;2023-04-12T07:17:23;1.30;;;1.30;;
4186;SDS011;2107;52.306;10.484;2023-04-12T07:19:51;1.20;;;1.20;;
4186;SDS011;2107;52.306;10.484;2023-04-12T07:22:19;0.90;;;0.90;;
4186;SDS011;2107;52.306;10.484;2023-04-12T07:24:46;0.80;;;0.80;;
4186;SDS011;2107;52.306;10.484;2023-04-12T07:27:14;0.80;;;0.80;;
4186;SDS011;2107;52.306;10.484;2023-04-12T07:29:40;0.80;;;0.80;;
4186;SDS011;2107;52.306;10.484;2023-04-12T07:32:08;0.80;;;0.80;;
4186;SDS011;2107;52.306;10.484;2023-04-12T07:34:35;0.90;;;0.90;;
4186;SDS011;2107;52.306;10.484;2023-04-12T07:37:03;1.47;;;1.47;;
4186;SDS011;2107;52.306;10.484;2023-04-12T07:39:31;1.10;;;1.10;;
4186;SDS011;2107;52.306;10.484;2023-04-12T07:42:00;1.10;;;1.10;;
4186;SDS011;2107;52.306;10.484;2023-04-12T07:44:27;1.20;;;1.20;;
4186;SDS011;2107;52.306;10.484;2023-04-12T07:46:55;1.30;;;1.30;;
4186;SDS011;2107;52.306;10.484;2023-04-12T07:49:21;1.30;;;1.30;;
4186;SDS011;2107;52.306;10.484;2023-04-12T07:51:48;1.10;;;1.10;;
4186;SDS011;2107;52.306;10.484;2023-04-12T07:54:15;1.27;;;1.27;;
4186;SDS011;2107;52.306;10.484;2023-04-12T07:56:53;1.17;;;1.17;;
4186;SDS011;2107;52.306;10.484;2023-04-12T07:59:22;1.10;;;1.10;;
4186;SDS011;2107;52.306;10.484;2023-04-12T08:01:49;1.20;;;1.20;;
4186;SDS011;2107;52.306;10.484;2023-04-12T08:04:16;1.20;;;1.20;;
4186;SDS011;2107;52.306;10.484;2023-04-12T08:06:43;1.10;;;1.10;;
4186;SDS011;2107;52.306;10.484;2023-04-12T08:09:10;1.00;;;1.00;;
4186;SDS011;2107;52.306;10.484;2023-04-12T08:11:37;0.90;;;0.90;;
4186;SDS011;2107;52.306;10.484;2023-04-12T08:14:05;1.20;;;1.20;;
4186;SDS011;2107;52.306;10.484;2023-04-12T08:16:32;1.00;;;1.00;;
4186;SDS011;2107;52.306;10.484;2023-04-12T08:18:59;1.00;;;1.00;;
4186;SDS011;2107;52.306;10.484;2023-04-12T08:21:26;0.80;;;0.80;;
4186;SDS011;2107;52.306;10.484;2023-04-12T08:23:54;1.20;;;1.20;;
4186;SDS011;2107;52.306;10.484;2023-04-12T08:26:21;1.20;;;1.20;;
4186;SDS011;2107;52.306;10.484;2023-04-12T08:28:47;1.30;;;1.30;;
4186;SDS011;2107;52.306;10.484;2023-04-12T08:31:16;1.00;;;1.00;;
4186;SDS011;2107;52.306;10.484;2023-04-12T08:33:43;1.20;;;1.20;;
4186;SDS011;2107;52.306;10.484;2023-04-12T08:36:10;1.30;;;1.30;;
4186;SDS011;2107;52.306;10.484;2023-04-12T08:38:36;1.00;;;1.00;;
4186;SDS011;2107;52.306;10.484;2023-04-12T08:41:03;1.00;;;1.00;;
4186;SDS011;2107;52.306;10.484;2023-04-12T08:43:31;0.93;;;0.93;;
4186;SDS011;2107;52.306;10.484;2023-04-12T08:45:59;0.80;;;0.80;;
4186;SDS011;2107;52.306;10.484;2023-04-12T08:48:28;1.00;;;1.00;;
4186;SDS011;2107;52.306;10.484;2023-04-12T08:50:55;1.10;;;1.10;;
4186;SDS011;2107;52.306;10.484;2023-04-12T08:53:22;1.10;;;1.10;;
4186;SDS011;2107;52.306;10.484;2023-04-12T08:55:49;1.10;;;1.10;;
4186;SDS011;2107;52.306;10.484;2023-04-12T08:58:17;1.00;;;1.00;;
4186;SDS011;2107;52.306;10.484;2023-04-12T09:00:45;1.20;;;1.20;;
4186;SDS011;2107;52.306;10.484;2023-04-12T09:03:13;1.30;;;1.30;;
4186;SDS011;2107;52.306;10.484;2023-04-12T09:05:41;0.90;;;0.90;;
4186;SDS011;2107;52.306;10.484;2023-04-12T09:08:08;0.60;;;0.60;;
4186;SDS011;2107;52.306;10.484;2023-04-12T09:10:36;0.60;;;0.60;;
4186;SDS011;2107;52.306;10.484;2023-04-12T09:13:03;1.10;;;1.10;;
4186;SDS011;2107;52.306;10.484;2023-04-12T09:15:31;0.90;;;0.90;;
4186;SDS011;2107;52.306;10.484;2023-04-12T09:18:03;0.80;;;0.80;;
4186;SDS011;2107;52.306;10.484;2023-04-12T09:20:32;1.07;;;1.07;;
4186;SDS011;2107;52.306;10.484;2023-04-12T09:23:11;1.00;;;1.00;;
4186;SDS011;2107;52.306;10.484;2023-04-12T09:25:42;0.90;;;0.90;;
4186;SDS011;2107;52.306;10.484;2023-04-12T09:28:22;0.87;;;0.87;;
4186;SDS011;2107;52.306;10.484;2023-04-12T09:30:50;0.80;;;0.80;;
4186;SDS011;2107;52.306;10.484;2023-04-12T09:33:18;1.60;;;1.60;;
4186;SDS011;2107;52.306;10.484;2023-04-12T09:35:46;1.10;;;1.10;;
4186;SDS011;2107;52.306;10.484;2023-04-12T09:38:14;1.20;;;1.20;;
4186;SDS011;2107;52.306;10.484;2023-04-12T09:40:41;0.90;;;0.90;;
4186;SDS011;2107;52.306;10.484;2023-04-12T09:43:08;1.00;;;1.00;;
4186;SDS011;2107;52.306;10.484;2023-04-12T09:45:35;1.00;;;1.00;;
4186;SDS011;2107;52.306;10.484;2023-04-12T09:48:04;1.03;;;1.03;;
4186;SDS011;2107;52.306;10.484;2023-04-12T09:50:32;0.97;;;0.97;;
4186;SDS011;2107;52.306;10.484;2023-04-12T09:53:00;1.00;;;1.00;;
4186;SDS011;2107;52.306;10.484;2023-04-12T09:55:29;1.10;;;1.10;;
4186;SDS011;2107;52.306;10.484;2023-04-12T09:57:59;1.10;;;1.10;;
4186;SDS011;2107;52.306;10.484;2023-04-12T10:00:29;0.80;;;0.80;;
4186;SDS011;2107;52.306;10.484;2023-04-12T10:02:58;0.70;;;0.70;;
4186;SDS011;2107;52.306;10.484;2023-04-12T10:05:25;1.40;;;1.40;;
4186;SDS011;2107;52.306;10.484;2023-04-12T10:07:53;1.00;;;1.00;;
4186;SDS011;2107;52.306;10.484;2023-04-12T10:10:21;1.20;;;1.20;;
4186;SDS011;2107;52.306;10.484;2023-04-12T10:12:49;1.10;;;1.10;;
4186;SDS011;2107;52.306;10.484;2023-04-12T10:15:16;1.20;;;1.20;;
4186;SDS011;2107;52.306;10.484;2023-04-12T10:17:46;1.53;;;1.53;;
4186;SDS011;2107;52.306;10.484;2023-04-12T10:20:14;1.20;;;1.20;;
4186;SDS011;2107;52.306;10.484;2023-04-12T10:22:43;1.47;;;1.47;;
4186;SDS011;2107;52.306;10.484;2023-04-12T10:25:12;1.40;;;1.40;;
4186;SDS011;2107;52.306;10.484;2023-04-12T10:27:40;1.43;;;1.43;;
4186;SDS011;2107;52.306;10.484;2023-04-12T10:30:22;1.40;;;1.40;;
4186;SDS011;2107;52.306;10.484;2023-04-12T10:35:53;1.10;;;1.10;;
4186;SDS011;2107;52.306;10.484;2023-04-12T10:38:21;1.40;;;1.40;;
4186;SDS011;2107;52.306;10.484;2023-04-12T10:41:08;1.20;;;1.20;;
4186;SDS011;2107;52.306;10.484;2023-04-12T10:43:39;1.50;;;1.50;;
4186;SDS011;2107;52.306;10.484;2023-04-12T10:46:08;1.20;;;1.20;;
4186;SDS011;2107;52.306;10.484;2023-04-12T10:49:17;0.80;;;0.80;;
4186;SDS011;2107;52.306;10.484;2023-04-12T10:54:42;0.80;;;0.80;;
4186;SDS011;2107;52.306;10.484;2023-04-12T11:00:07;0.60;;;0.60;;
4186;SDS011;2107;52.306;10.484;2023-04-12T11:02:36;1.00;;;1.00;;
4186;SDS011;2107;52.306;10.484;2023-04-12T11:05:31;1.00;;;1.00;;
4186;SDS011;2107;52.306;10.484;2023-04-12T11:08:25;1.10;;;1.10;;
4186;SDS011;2107;52.306;10.484;2023-04-12T11:10:57;1.10;;;1.10;;
4186;SDS011;2107;52.306;10.484;2023-04-12T11:13:27;0.90;;;0.90;;
4186;SDS011;2107;52.306;10.484;2023-04-12T11:15:54;0.77;;;0.77;;
4186;SDS011;2107;52.306;10.484;2023-04-12T11:18:23;0.60;;;0.60;;
4186;SDS011;2107;52.306;10.484;2023-04-12T11:20:51;0.60;;;0.60;;
4186;SDS011;2107;52.306;10.484;2023-04-12T11:23:19;0.50;;;0.50;;
4186;SDS011;2107;52.306;10.484;2023-04-12T11:25:49;0.60;;;0.60;;
4186;SDS011;2107;52.306;10.484;2023-04-12T11:28:17;0.60;;;0.60;;
4186;SDS011;2107;52.306;10.484;2023-04-12T11:30:48;0.70;;;0.70;;
4186;SDS011;2107;52.306;10.484;2023-04-12T11:33:34;0.57;;;0.57;;
4186;SDS011;2107;52.306;10.484;2023-04-12T11:36:02;0.70;;;0.70;;
4186;SDS011;2107;52.306;10.484;2023-04-12T11:38:31;0.77;;;0.77;;
4186;SDS011;2107;52.306;10.484;2023-04-12T11:40:59;0.60;;;0.60;;
4186;SDS011;2107;52.306;10.484;2023-04-12T11:43:26;0.70;;;0.70;;
4186;SDS011;2107;52.306;10.484;2023-04-12T11:45:54;0.70;;;0.70;;
4186;SDS011;2107;52.306;10.484;2023-04-12T11:48:23;1.00;;;1.00;;
4186;SDS011;2107;52.306;10.484;2023-04-12T11:50:51;0.80;;;0.80;;
4186;SDS011;2107;52.306;10.484;2023-04-12T11:53:18;1.00;;;1.00;;
4186;SDS011;2107;52.306;10.484;2023-04-12T11:55:48;1.20;;;1.20;;
4186;SDS011;2107;52.306;10.484;2023-04-12T11:58:15;1.30;;;1.30;;
4186;SDS011;2107;52.306;10.484;2023-04-12T12:00:42;1.10;;;1.10;;
4186;SDS011;2107;52.306;10.484;2023-04-12T12:03:10;0.77;;;0.77;;
4186;SDS011;2107;52.306;10.484;2023-04-12T12:05:37;0.50;;;0.50;;
4186;SDS011;2107;52.306;10.484;2023-04-12T12:08:07;0.70;;;0.70;;
4186;SDS011;2107;52.306;10.484;2023-04-12T12:10:35;0.70;;;0.70;;
4186;SDS011;2107;52.306;10.484;2023-04-12T12:13:02;0.80;;;0.80;;
4186;SDS011;2107;52.306;10.484;2023-04-12T12:15:35;0.60;;;0.60;;
4186;SDS011;2107;52.306;10.484;2023-04-12T12:18:02;0.60;;;0.60;;
4186;SDS011;2107;52.306;10.484;2023-04-12T12:20:32;0.53;;;0.53;;
4186;SDS011;2107;52.306;10.484;2023-04-12T12:23:04;0.70;;;0.70;;
4186;SDS011;2107;52.306;10.484;2023-04-12T12:25:32;0.50;;;0.50;;
4186;SDS011;2107;52.306;10.484;2023-04-12T12:27:59;0.40;;;0.40;;
4186;SDS011;2107;52.306;10.484;2023-04-12T12:30:29;0.30;;;0.30;;
4186;SDS011;2107;52.306;10.484;2023-04-12T12:32:56;0.30;;;0.30;;
4186;SDS011;2107;52.306;10.484;2023-04-12T12:35:23;0.20;;;0.20;;
4186;SDS011;2107;52.306;10.484;2023-04-12T12:37:51;0.30;;;0.30;;
4186;SDS011;2107;52.306;10.484;2023-04-12T12:40:27;0.40;;;0.40;;
4186;SDS011;2107;52.306;10.484;2023-04-12T12:42:58;0.33;;;0.33;;
4186;SDS011;2107;52.306;10.484;2023-04-12T12:45:25;0.30;;;0.30;;
4186;SDS011;2107;52.306;10.484;2023-04-12T12:47:53;0.30;;;0.30;;
4186;SDS011;2107;52.306;10.484;2023-04-12T12:50:22;0.30;;;0.30;;
4186;SDS011;2107;52.306;10.484;2023-04-12T12:52:51;0.40;;;0.40;;
4186;SDS011;2107;52.306;10.484;2023-04-12T12:55:19;0.30;;;0.30;;
4186;SDS011;2107;52.306;10.484;2023-04-12T12:57:46;0.30;;;0.30;;
4186;SDS011;2107;52.306;10.484;2023-04-12T13:00:15;0.30;;;0.30;;
4186;SDS011;2107;52.306;10.484;2023-04-12T13:02:44;0.30;;;0.30;;
4186;SDS011;2107;52.306;10.484;2023-04-12T13:05:11;0.30;;;0.30;;
4186;SDS011;2107;52.306;10.484;2023-04-12T13:07:38;0.30;;;0.30;;
4186;SDS011;2107;52.306;10.484;2023-04-12T13:10:05;0.20;;;0.20;;
4186;SDS011;2107;52.306;10.484;2023-04-12T13:12:33;0.30;;;0.30;;
4186;SDS011;2107;52.306;10.484;2023-04-12T13:14:59;0.30;;;0.30;;
4186;SDS011;2107;52.306;10.484;2023-04-12T13:17:28;0.30;;;0.30;;
4186;SDS011;2107;52.306;10.484;2023-04-12T13:19:55;0.30;;;0.30;;
4186;SDS011;2107;52.306;10.484;2023-04-12T13:22:23;0.30;;;0.30;;
4186;SDS011;2107;52.306;10.484;2023-04-12T13:24:51;0.30;;;0.30;;
4186;SDS011;2107;52.306;10.484;2023-04-12T13:27:19;0.30;;;0.30;;
4186;SDS011;2107;52.306;10.484;2023-04-12T13:29:45;0.40;;;0.40;;
4186;SDS011;2107;52.306;10.484;2023-04-12T13:32:12;0.40;;;0.40;;
4186;SDS011;2107;52.306;10.484;2023-04-12T13:34:41;0.50;;;0.50;;
4186;SDS011;2107;52.306;10.484;2023-04-12T13:37:07;0.50;;;0.50;;
4186;SDS011;2107;52.306;10.484;2023-04-12T13:39:34;0.60;;;0.60;;
4186;SDS011;2107;52.306;10.484;2023-04-12T13:42:04;0.47;;;0.47;;
4186;SDS011;2107;52.306;10.484;2023-04-12T13:44:31;0.57;;;0.57;;
4186;SDS011;2107;52.306;10.484;2023-04-12T13:46:57;0.50;;;0.50;;
4186;SDS011;2107;52.306;10.484;2023-04-12T13:49:24;0.50;;;0.50;;
4186;SDS011;2107;52.306;10.484;2023-04-12T13:51:52;0.60;;;0.60;;
4186;SDS011;2107;52.306;10.484;2023-04-12T13:54:20;0.40;;;0.40;;
4186;SDS011;2107;52.306;10.484;2023-04-12T13:56:47;0.50;;;0.50;;
4186;SDS011;2107;52.306;10.484;2023-04-12T13:59:14;0.60;;;0.60;;
4186;SDS011;2107;52.306;10.484;2023-04-12T14:01:41;0.70;;;0.70;;
4186;SDS011;2107;52.306;10.484;2023-04-12T14:04:08;0.60;;;0.60;;
4186;SDS011;2107;52.306;10.484;2023-04-12T14:06:35;0.40;;;0.40;;
4186;SDS011;2107;52.306;10.484;2023-04-12T14:09:04;0.50;;;0.50;;
4186;SDS011;2107;52.306;10.484;2023-04-12T14:11:43;0.60;;;0.60;;
4186;SDS011;2107;52.306;10.484;2023-04-12T14:14:11;0.50;;;0.50;;
4186;SDS011;2107;52.306;10.484;2023-04-12T14:16:37;0.50;;;0.50;;
4186;SDS011;2107;52.306;10.484;2023-04-12T14:19:04;0.43;;;0.43;;
4186;SDS011;2107;52.306;10.484;2023-04-12T14:21:31;0.50;;;0.50;;
4186;SDS011;2107;52.306;10.484;2023-04-12T14:23:58;0.60;;;0.60;;
4186;SDS011;2107;52.306;10.484;2023-04-12T14:26:26;0.40;;;0.40;;
4186;SDS011;2107;52.306;10.484;2023-04-12T14:28:53;0.40;;;0.40;;
4186;SDS011;2107;52.306;10.484;2023-04-12T14:31:20;0.40;;;0.40;;
4186;SDS011;2107;52.306;10.484;2023-04-12T14:33:47;0.50;;;0.50;;
4186;SDS011;2107;52.306;10.484;2023-04-12T14:36:14;0.50;;;0.50;;
4186;SDS011;2107;52.306;10.484;2023-04-12T14:38:41;0.50;;;0.50;;
4186;SDS011;2107;52.306;10.484;2023-04-12T14:41:08;0.40;;;0.40;;
4186;SDS011;2107;52.306;10.484;2023-04-12T14:43:39;0.50;;;0.50;;
4186;SDS011;2107;52.306;10.484;2023-04-12T14:46:06;0.40;;;0.40;;
4186;SDS011;2107;52.306;10.484;2023-04-12T14:48:33;0.30;;;0.30;;
4186;SDS011;2107;52.306;10.484;2023-04-12T14:51:00;0.30;;;0.30;;
4186;SDS011;2107;52.306;10.484;2023-04-12T14:53:27;0.50;;;0.50;;
4186;SDS011;2107;52.306;10.484;2023-04-12T14:55:54;0.30;;;0.30;;
4186;SDS011;2107;52.306;10.484;2023-04-12T14:58:21;0.43;;;0.43;;
4186;SDS011;2107;52.306;10.484;2023-04-12T15:00:49;0.40;;;0.40;;
4186;SDS011;2107;52.306;10.484;2023-04-12T15:03:16;0.40;;;0.40;;
4186;SDS011;2107;52.306;10.484;2023-04-12T15:05:44;0.50;;;0.50;;
4186;SDS011;2107;52.306;10.484;2023-04-12T15:08:12;0.30;;;0.30;;
4186;SDS011;2107;52.306;10.484;2023-04-12T15:10:39;0.30;;;0.30;;
4186;SDS011;2107;52.306;10.484;2023-04-12T15:13:05;0.40;;;0.40;;
4186;SDS011;2107;52.306;10.484;2023-04-12T15:15:32;0.33;;;0.33;;
4186;SDS011;2107;52.306;10.484;2023-04-12T15:18:00;0.40;;;0.40;;